sensor_id;sensor_type;location;lat;lon;timestamp;P1;durP1;ratioP1;P2;durP2;ratioP2
57085;SDS011;42964;42.910;23.792;2023-08-07T00:01:32;4.45;;;3.40;;
57085;SDS011;42964;42.910;23.792;2023-08-07T00:06:31;3.85;;;3.40;;
57085;SDS011;42964;42.910;23.792;2023-08-07T00:11:30;5.65;;;3.55;;
57085;SDS011;42964;42.910;23.792;2023-08-07T00:16:29;3.55;;;3.25;;
57085;SDS011;42964;42.910;23.792;2023-08-07T00:21:28;4.60;;;3.17;;
57085;SDS011;42964;42.910;23.792;2023-08-07T00:26:27;4.60;;;3.70;;
57085;SDS011;42964;42.910;23.792;2023-08-07T00:31:26;4.45;;;3.88;;
57085;SDS011;42964;42.910;23.792;2023-08-07T00:36:29;4.45;;;3.83;;
57085;SDS011;42964;42.910;23.792;2023-08-07T00:41:29;3.92;;;3.50;;
57085;SDS011;42964;42.910;23.792;2023-08-07T00:46:28;4.43;;;4.03;;
57085;SDS011;42964;42.910;23.792;2023-08-07T00:51:28;4.70;;;4.18;;
57085;SDS011;42964;42.910;23.792;2023-08-07T00:56:27;7.10;;;4.35;;
57085;SDS011;42964;42.910;23.792;2023-08-07T01:01:26;4.40;;;4.00;;
57085;SDS011;42964;42.910;23.792;2023-08-07T01:06:26;5.15;;;4.18;;
57085;SDS011;42964;42.910;23.792;2023-08-07T01:16:57;5.28;;;4.72;;
57085;SDS011;42964;42.910;23.792;2023-08-07T01:22:04;6.38;;;4.53;;
57085;SDS011;42964;42.910;23.792;2023-08-07T01:27:23;3.90;;;3.50;;
57085;SDS011;42964;42.910;23.792;2023-08-07T01:37:39;3.92;;;3.60;;
57085;SDS011;42964;42.910;23.792;2023-08-07T01:42:39;4.82;;;3.75;;
57085;SDS011;42964;42.910;23.792;2023-08-07T01:47:39;3.95;;;3.55;;
57085;SDS011;42964;42.910;23.792;2023-08-07T01:52:38;3.63;;;3.33;;
57085;SDS011;42964;42.910;23.792;2023-08-07T01:57:37;3.75;;;3.45;;
57085;SDS011;42964;42.910;23.792;2023-08-07T02:02:36;4.70;;;3.70;;
57085;SDS011;42964;42.910;23.792;2023-08-07T02:07:36;3.35;;;3.05;;
57085;SDS011;42964;42.910;23.792;2023-08-07T02:12:35;4.43;;;3.80;;
57085;SDS011;42964;42.910;23.792;2023-08-07T02:17:34;3.88;;;3.55;;
57085;SDS011;42964;42.910;23.792;2023-08-07T02:22:34;3.70;;;3.40;;
57085;SDS011;42964;42.910;23.792;2023-08-07T02:27:33;3.42;;;3.13;;
57085;SDS011;42964;42.910;23.792;2023-08-07T02:32:32;8.52;;;4.13;;
57085;SDS011;42964;42.910;23.792;2023-08-07T02:37:31;5.10;;;3.70;;
57085;SDS011;42964;42.910;23.792;2023-08-07T02:42:30;3.70;;;3.40;;
57085;SDS011;42964;42.910;23.792;2023-08-07T02:47:29;3.33;;;3.03;;
57085;SDS011;42964;42.910;23.792;2023-08-07T02:52:28;4.38;;;3.60;;
57085;SDS011;42964;42.910;23.792;2023-08-07T02:57:27;3.17;;;2.95;;
57085;SDS011;42964;42.910;23.792;2023-08-07T03:02:26;4.97;;;3.22;;
57085;SDS011;42964;42.910;23.792;2023-08-07T03:07:27;3.38;;;2.90;;
57085;SDS011;42964;42.910;23.792;2023-08-07T03:12:26;3.45;;;3.05;;
57085;SDS011;42964;42.910;23.792;2023-08-07T03:17:25;3.53;;;3.22;;
57085;SDS011;42964;42.910;23.792;2023-08-07T03:22:24;5.03;;;3.30;;
57085;SDS011;42964;42.910;23.792;2023-08-07T03:27:23;6.82;;;4.22;;
57085;SDS011;42964;42.910;23.792;2023-08-07T03:32:22;5.05;;;3.95;;
57085;SDS011;42964;42.910;23.792;2023-08-07T03:37:21;7.47;;;4.35;;
57085;SDS011;42964;42.910;23.792;2023-08-07T03:42:19;6.55;;;4.60;;
57085;SDS011;42964;42.910;23.792;2023-08-07T03:47:18;4.97;;;4.05;;
57085;SDS011;42964;42.910;23.792;2023-08-07T03:52:17;4.97;;;3.65;;
57085;SDS011;42964;42.910;23.792;2023-08-07T03:57:16;5.93;;;5.30;;
57085;SDS011;42964;42.910;23.792;2023-08-07T04:02:16;5.85;;;4.22;;
57085;SDS011;42964;42.910;23.792;2023-08-07T04:07:15;4.60;;;3.90;;
57085;SDS011;42964;42.910;23.792;2023-08-07T04:12:14;7.15;;;4.80;;
57085;SDS011;42964;42.910;23.792;2023-08-07T04:17:13;9.63;;;4.65;;
57085;SDS011;42964;42.910;23.792;2023-08-07T04:22:12;6.70;;;4.15;;
57085;SDS011;42964;42.910;23.792;2023-08-07T04:27:11;3.63;;;3.22;;
57085;SDS011;42964;42.910;23.792;2023-08-07T04:32:10;13.25;;;5.35;;
57085;SDS011;42964;42.910;23.792;2023-08-07T04:37:09;6.50;;;4.22;;
57085;SDS011;42964;42.910;23.792;2023-08-07T04:42:08;8.35;;;3.90;;
57085;SDS011;42964;42.910;23.792;2023-08-07T04:47:07;3.13;;;2.70;;
57085;SDS011;42964;42.910;23.792;2023-08-07T04:52:06;7.75;;;2.83;;
57085;SDS011;42964;42.910;23.792;2023-08-07T04:57:05;4.07;;;3.08;;
57085;SDS011;42964;42.910;23.792;2023-08-07T05:02:04;5.63;;;2.70;;
57085;SDS011;42964;42.910;23.792;2023-08-07T05:07:04;4.57;;;3.90;;
57085;SDS011;42964;42.910;23.792;2023-08-07T05:12:03;2.60;;;2.40;;
57085;SDS011;42964;42.910;23.792;2023-08-07T05:17:03;3.22;;;2.70;;
57085;SDS011;42964;42.910;23.792;2023-08-07T05:22:02;3.25;;;2.17;;
57085;SDS011;42964;42.910;23.792;2023-08-07T05:27:01;2.72;;;2.08;;
57085;SDS011;42964;42.910;23.792;2023-08-07T05:32:00;2.30;;;2.10;;
57085;SDS011;42964;42.910;23.792;2023-08-07T05:37:00;2.72;;;2.28;;
57085;SDS011;42964;42.910;23.792;2023-08-07T05:41:59;2.78;;;1.95;;
57085;SDS011;42964;42.910;23.792;2023-08-07T05:46:58;2.13;;;1.92;;
57085;SDS011;42964;42.910;23.792;2023-08-07T05:51:57;2.85;;;2.00;;
57085;SDS011;42964;42.910;23.792;2023-08-07T05:56:56;2.85;;;1.80;;
57085;SDS011;42964;42.910;23.792;2023-08-07T06:01:55;2.00;;;1.90;;
57085;SDS011;42964;42.910;23.792;2023-08-07T06:06:54;2.15;;;1.90;;
57085;SDS011;42964;42.910;23.792;2023-08-07T06:11:53;2.20;;;1.90;;
57085;SDS011;42964;42.910;23.792;2023-08-07T06:16:52;2.38;;;2.15;;
57085;SDS011;42964;42.910;23.792;2023-08-07T06:21:51;3.17;;;1.67;;
57085;SDS011;42964;42.910;23.792;2023-08-07T06:26:50;3.63;;;2.17;;
57085;SDS011;42964;42.910;23.792;2023-08-07T06:31:49;2.22;;;2.03;;
57085;SDS011;42964;42.910;23.792;2023-08-07T06:36:47;2.35;;;1.60;;
57085;SDS011;42964;42.910;23.792;2023-08-07T06:41:46;1.70;;;1.60;;
57085;SDS011;42964;42.910;23.792;2023-08-07T06:46:45;2.13;;;1.50;;
57085;SDS011;42964;42.910;23.792;2023-08-07T06:51:44;1.20;;;1.17;;
57085;SDS011;42964;42.910;23.792;2023-08-07T06:56:43;1.63;;;1.40;;
57085;SDS011;42964;42.910;23.792;2023-08-07T07:01:43;1.40;;;1.30;;
57085;SDS011;42964;42.910;23.792;2023-08-07T07:06:42;3.75;;;1.55;;
57085;SDS011;42964;42.910;23.792;2023-08-07T07:11:41;1.40;;;1.30;;
57085;SDS011;42964;42.910;23.792;2023-08-07T07:16:41;1.45;;;1.35;;
57085;SDS011;42964;42.910;23.792;2023-08-07T07:21:42;2.05;;;1.42;;
57085;SDS011;42964;42.910;23.792;2023-08-07T07:26:41;3.25;;;1.58;;
57085;SDS011;42964;42.910;23.792;2023-08-07T07:31:40;1.67;;;1.40;;
57085;SDS011;42964;42.910;23.792;2023-08-07T07:36:39;2.45;;;1.50;;
57085;SDS011;42964;42.910;23.792;2023-08-07T07:41:38;1.83;;;1.58;;
57085;SDS011;42964;42.910;23.792;2023-08-07T07:46:37;2.40;;;1.50;;
57085;SDS011;42964;42.910;23.792;2023-08-07T07:51:36;1.88;;;1.70;;
57085;SDS011;42964;42.910;23.792;2023-08-07T07:56:36;5.78;;;2.10;;
57085;SDS011;42964;42.910;23.792;2023-08-07T08:01:36;1.75;;;1.63;;
57085;SDS011;42964;42.910;23.792;2023-08-07T08:06:34;1.50;;;1.40;;
57085;SDS011;42964;42.910;23.792;2023-08-07T08:11:33;1.67;;;1.55;;
57085;SDS011;42964;42.910;23.792;2023-08-07T08:16:32;1.88;;;1.73;;
57085;SDS011;42964;42.910;23.792;2023-08-07T08:21:31;3.72;;;1.85;;
57085;SDS011;42964;42.910;23.792;2023-08-07T08:26:31;3.45;;;1.77;;
57085;SDS011;42964;42.910;23.792;2023-08-07T08:31:30;4.30;;;2.08;;
57085;SDS011;42964;42.910;23.792;2023-08-07T08:36:29;5.07;;;1.88;;
57085;SDS011;42964;42.910;23.792;2023-08-07T08:41:27;1.80;;;1.70;;
57085;SDS011;42964;42.910;23.792;2023-08-07T08:46:28;1.70;;;1.60;;
57085;SDS011;42964;42.910;23.792;2023-08-07T08:51:28;2.25;;;2.05;;
57085;SDS011;42964;42.910;23.792;2023-08-07T08:56:28;2.55;;;1.75;;
57085;SDS011;42964;42.910;23.792;2023-08-07T09:01:29;3.05;;;2.00;;
57085;SDS011;42964;42.910;23.792;2023-08-07T09:06:31;1.92;;;1.52;;
57085;SDS011;42964;42.910;23.792;2023-08-07T09:11:31;2.08;;;1.83;;
57085;SDS011;42964;42.910;23.792;2023-08-07T09:16:31;3.63;;;1.70;;
57085;SDS011;42964;42.910;23.792;2023-08-07T09:21:32;2.88;;;1.77;;
57085;SDS011;42964;42.910;23.792;2023-08-07T09:26:32;2.38;;;1.80;;
57085;SDS011;42964;42.910;23.792;2023-08-07T09:31:32;4.43;;;2.55;;
57085;SDS011;42964;42.910;23.792;2023-08-07T09:36:31;3.00;;;1.70;;
57085;SDS011;42964;42.910;23.792;2023-08-07T09:41:31;1.70;;;1.60;;
57085;SDS011;42964;42.910;23.792;2023-08-07T09:46:30;1.83;;;1.73;;
57085;SDS011;42964;42.910;23.792;2023-08-07T09:51:42;1.65;;;1.55;;
57085;SDS011;42964;42.910;23.792;2023-08-07T09:56:42;1.80;;;1.70;;
57085;SDS011;42964;42.910;23.792;2023-08-07T10:01:42;2.10;;;1.90;;
57085;SDS011;42964;42.910;23.792;2023-08-07T10:06:43;3.13;;;1.67;;
57085;SDS011;42964;42.910;23.792;2023-08-07T10:11:42;1.90;;;1.70;;
57085;SDS011;42964;42.910;23.792;2023-08-07T10:16:41;3.65;;;1.70;;
57085;SDS011;42964;42.910;23.792;2023-08-07T10:21:41;2.75;;;1.60;;
57085;SDS011;42964;42.910;23.792;2023-08-07T10:26:43;1.63;;;1.52;;
57085;SDS011;42964;42.910;23.792;2023-08-07T10:31:44;2.45;;;1.70;;
57085;SDS011;42964;42.910;23.792;2023-08-07T10:36:45;4.47;;;1.65;;
57085;SDS011;42964;42.910;23.792;2023-08-07T10:41:45;2.65;;;1.58;;
57085;SDS011;42964;42.910;23.792;2023-08-07T10:46:48;2.50;;;1.73;;
57085;SDS011;42964;42.910;23.792;2023-08-07T10:51:49;1.98;;;1.70;;
57085;SDS011;42964;42.910;23.792;2023-08-07T10:56:52;2.17;;;1.83;;
57085;SDS011;42964;42.910;23.792;2023-08-07T11:01:54;3.38;;;1.75;;
57085;SDS011;42964;42.910;23.792;2023-08-07T11:06:53;1.58;;;1.48;;
57085;SDS011;42964;42.910;23.792;2023-08-07T11:11:53;1.60;;;1.50;;
57085;SDS011;42964;42.910;23.792;2023-08-07T11:16:52;1.92;;;1.73;;
57085;SDS011;42964;42.910;23.792;2023-08-07T11:21:51;1.80;;;1.70;;
57085;SDS011;42964;42.910;23.792;2023-08-07T11:26:53;1.60;;;1.50;;
57085;SDS011;42964;42.910;23.792;2023-08-07T11:31:54;2.90;;;1.67;;
57085;SDS011;42964;42.910;23.792;2023-08-07T11:36:53;1.60;;;1.50;;
57085;SDS011;42964;42.910;23.792;2023-08-07T11:41:53;2.03;;;1.80;;
57085;SDS011;42964;42.910;23.792;2023-08-07T11:46:53;1.75;;;1.65;;
57085;SDS011;42964;42.910;23.792;2023-08-07T11:51:52;2.22;;;1.70;;
57085;SDS011;42964;42.910;23.792;2023-08-07T11:56:53;2.05;;;1.90;;
57085;SDS011;42964;42.910;23.792;2023-08-07T12:01:51;1.70;;;1.60;;
57085;SDS011;42964;42.910;23.792;2023-08-07T12:06:54;2.97;;;1.67;;
57085;SDS011;42964;42.910;23.792;2023-08-07T12:11:59;2.30;;;1.70;;
57085;SDS011;42964;42.910;23.792;2023-08-07T12:17:00;1.88;;;1.77;;
57085;SDS011;42964;42.910;23.792;2023-08-07T12:22:01;2.83;;;1.80;;
57085;SDS011;42964;42.910;23.792;2023-08-07T12:27:03;1.85;;;1.75;;
57085;SDS011;42964;42.910;23.792;2023-08-07T12:32:03;1.60;;;1.50;;
57085;SDS011;42964;42.910;23.792;2023-08-07T12:37:03;1.90;;;1.65;;
57085;SDS011;42964;42.910;23.792;2023-08-07T12:42:03;1.90;;;1.80;;
57085;SDS011;42964;42.910;23.792;2023-08-07T12:47:03;3.35;;;1.98;;
57085;SDS011;42964;42.910;23.792;2023-08-07T12:52:03;1.90;;;1.80;;
57085;SDS011;42964;42.910;23.792;2023-08-07T12:57:02;14.85;;;2.65;;
57085;SDS011;42964;42.910;23.792;2023-08-07T13:02:02;1.75;;;1.60;;
57085;SDS011;42964;42.910;23.792;2023-08-07T13:07:01;1.70;;;1.60;;
57085;SDS011;42964;42.910;23.792;2023-08-07T13:12:00;1.60;;;1.50;;
57085;SDS011;42964;42.910;23.792;2023-08-07T13:16:59;3.90;;;1.83;;
57085;SDS011;42964;42.910;23.792;2023-08-07T13:21:58;4.22;;;2.10;;
57085;SDS011;42964;42.910;23.792;2023-08-07T13:26:57;3.88;;;1.75;;
57085;SDS011;42964;42.910;23.792;2023-08-07T13:31:56;2.40;;;1.83;;
57085;SDS011;42964;42.910;23.792;2023-08-07T13:36:55;1.65;;;1.55;;
57085;SDS011;42964;42.910;23.792;2023-08-07T13:41:54;1.83;;;1.35;;
57085;SDS011;42964;42.910;23.792;2023-08-07T13:46:53;3.42;;;1.70;;
57085;SDS011;42964;42.910;23.792;2023-08-07T13:51:55;1.50;;;1.40;;
57085;SDS011;42964;42.910;23.792;2023-08-07T13:56:55;1.77;;;1.45;;
57085;SDS011;42964;42.910;23.792;2023-08-07T14:01:54;2.70;;;1.52;;
57085;SDS011;42964;42.910;23.792;2023-08-07T14:06:54;2.88;;;1.60;;
57085;SDS011;42964;42.910;23.792;2023-08-07T14:11:53;1.70;;;1.60;;
57085;SDS011;42964;42.910;23.792;2023-08-07T14:16:52;1.50;;;1.40;;
57085;SDS011;42964;42.910;23.792;2023-08-07T14:21:55;1.52;;;1.42;;
57085;SDS011;42964;42.910;23.792;2023-08-07T14:26:54;3.33;;;1.40;;
57085;SDS011;42964;42.910;23.792;2023-08-07T14:31:52;1.60;;;1.40;;
57085;SDS011;42964;42.910;23.792;2023-08-07T14:36:51;2.35;;;1.38;;
57085;SDS011;42964;42.910;23.792;2023-08-07T14:41:52;1.90;;;1.42;;
57085;SDS011;42964;42.910;23.792;2023-08-07T14:46:53;1.52;;;1.30;;
57085;SDS011;42964;42.910;23.792;2023-08-07T14:51:52;1.42;;;1.20;;
57085;SDS011;42964;42.910;23.792;2023-08-07T14:56:51;1.75;;;1.40;;
57085;SDS011;42964;42.910;23.792;2023-08-07T15:01:50;2.22;;;1.42;;
57085;SDS011;42964;42.910;23.792;2023-08-07T15:06:49;1.48;;;1.38;;
57085;SDS011;42964;42.910;23.792;2023-08-07T15:11:49;2.47;;;1.45;;
57085;SDS011;42964;42.910;23.792;2023-08-07T15:16:48;1.95;;;1.67;;
57085;SDS011;42964;42.910;23.792;2023-08-07T15:21:47;2.88;;;1.50;;
57085;SDS011;42964;42.910;23.792;2023-08-07T15:26:49;2.75;;;1.35;;
57085;SDS011;42964;42.910;23.792;2023-08-07T15:31:47;1.65;;;1.20;;
57085;SDS011;42964;42.910;23.792;2023-08-07T15:36:46;1.67;;;1.58;;
57085;SDS011;42964;42.910;23.792;2023-08-07T15:41:45;2.60;;;1.73;;
57085;SDS011;42964;42.910;23.792;2023-08-07T15:46:44;2.08;;;1.58;;
57085;SDS011;42964;42.910;23.792;2023-08-07T15:51:44;1.67;;;1.40;;
57085;SDS011;42964;42.910;23.792;2023-08-07T15:56:43;1.23;;;1.15;;
57085;SDS011;42964;42.910;23.792;2023-08-07T16:01:42;2.15;;;1.58;;
57085;SDS011;42964;42.910;23.792;2023-08-07T16:06:41;1.50;;;1.23;;
57085;SDS011;42964;42.910;23.792;2023-08-07T16:11:39;2.65;;;1.60;;
57085;SDS011;42964;42.910;23.792;2023-08-07T16:16:38;1.80;;;1.52;;
57085;SDS011;42964;42.910;23.792;2023-08-07T16:21:37;4.20;;;1.45;;
57085;SDS011;42964;42.910;23.792;2023-08-07T16:26:36;2.70;;;1.40;;
57085;SDS011;42964;42.910;23.792;2023-08-07T16:31:35;2.13;;;1.40;;
57085;SDS011;42964;42.910;23.792;2023-08-07T16:36:35;3.40;;;1.98;;
57085;SDS011;42964;42.910;23.792;2023-08-07T16:41:34;2.53;;;1.60;;
57085;SDS011;42964;42.910;23.792;2023-08-07T16:46:33;3.42;;;1.50;;
57085;SDS011;42964;42.910;23.792;2023-08-07T16:51:32;2.63;;;1.50;;
57085;SDS011;42964;42.910;23.792;2023-08-07T16:56:31;1.92;;;1.80;;
57085;SDS011;42964;42.910;23.792;2023-08-07T17:01:30;2.13;;;1.55;;
57085;SDS011;42964;42.910;23.792;2023-08-07T17:06:29;2.47;;;1.50;;
57085;SDS011;42964;42.910;23.792;2023-08-07T17:11:28;2.72;;;1.83;;
57085;SDS011;42964;42.910;23.792;2023-08-07T17:16:29;2.67;;;1.75;;
57085;SDS011;42964;42.910;23.792;2023-08-07T17:21:28;5.45;;;1.73;;
57085;SDS011;42964;42.910;23.792;2023-08-07T17:26:27;2.35;;;1.67;;
57085;SDS011;42964;42.910;23.792;2023-08-07T17:31:28;1.88;;;1.67;;
57085;SDS011;42964;42.910;23.792;2023-08-07T17:36:27;2.28;;;1.83;;
57085;SDS011;42964;42.910;23.792;2023-08-07T17:41:26;3.33;;;1.92;;
57085;SDS011;42964;42.910;23.792;2023-08-07T17:46:25;2.72;;;1.90;;
57085;SDS011;42964;42.910;23.792;2023-08-07T17:51:24;3.80;;;2.38;;
57085;SDS011;42964;42.910;23.792;2023-08-07T17:56:38;4.47;;;2.47;;
57085;SDS011;42964;42.910;23.792;2023-08-07T18:01:37;3.95;;;2.00;;
57085;SDS011;42964;42.910;23.792;2023-08-07T18:06:36;6.18;;;3.47;;
57085;SDS011;42964;42.910;23.792;2023-08-07T18:11:35;2.50;;;1.92;;
57085;SDS011;42964;42.910;23.792;2023-08-07T18:16:34;2.72;;;2.00;;
57085;SDS011;42964;42.910;23.792;2023-08-07T18:21:33;5.07;;;2.80;;
57085;SDS011;42964;42.910;23.792;2023-08-07T18:26:32;3.50;;;2.70;;
57085;SDS011;42964;42.910;23.792;2023-08-07T18:31:31;4.50;;;2.38;;
57085;SDS011;42964;42.910;23.792;2023-08-07T18:36:31;3.55;;;2.08;;
57085;SDS011;42964;42.910;23.792;2023-08-07T18:41:30;2.20;;;2.00;;
57085;SDS011;42964;42.910;23.792;2023-08-07T18:46:29;2.30;;;2.10;;
57085;SDS011;42964;42.910;23.792;2023-08-07T18:51:28;2.83;;;1.95;;
57085;SDS011;42964;42.910;23.792;2023-08-07T18:56:29;4.20;;;2.95;;
57085;SDS011;42964;42.910;23.792;2023-08-07T19:01:30;3.65;;;2.30;;
57085;SDS011;42964;42.910;23.792;2023-08-07T19:06:30;3.42;;;2.33;;
57085;SDS011;42964;42.910;23.792;2023-08-07T19:11:31;3.50;;;2.20;;
57085;SDS011;42964;42.910;23.792;2023-08-07T19:16:30;3.13;;;2.05;;
57085;SDS011;42964;42.910;23.792;2023-08-07T19:21:29;5.15;;;2.35;;
57085;SDS011;42964;42.910;23.792;2023-08-07T19:26:28;3.53;;;2.13;;
57085;SDS011;42964;42.910;23.792;2023-08-07T19:31:27;2.70;;;2.35;;
57085;SDS011;42964;42.910;23.792;2023-08-07T19:36:26;4.90;;;2.58;;
57085;SDS011;42964;42.910;23.792;2023-08-07T19:41:25;5.75;;;2.55;;
57085;SDS011;42964;42.910;23.792;2023-08-07T19:46:24;5.07;;;2.70;;
57085;SDS011;42964;42.910;23.792;2023-08-07T19:51:23;4.35;;;3.03;;
57085;SDS011;42964;42.910;23.792;2023-08-07T19:56:22;5.63;;;3.00;;
57085;SDS011;42964;42.910;23.792;2023-08-07T20:01:21;4.78;;;2.47;;
57085;SDS011;42964;42.910;23.792;2023-08-07T20:06:20;6.18;;;2.67;;
57085;SDS011;42964;42.910;23.792;2023-08-07T20:11:19;2.88;;;2.22;;
57085;SDS011;42964;42.910;23.792;2023-08-07T20:16:18;7.00;;;2.28;;
57085;SDS011;42964;42.910;23.792;2023-08-07T20:21:17;4.22;;;2.60;;
57085;SDS011;42964;42.910;23.792;2023-08-07T20:26:17;20.15;;;3.20;;
57085;SDS011;42964;42.910;23.792;2023-08-07T20:31:16;5.28;;;2.95;;
57085;SDS011;42964;42.910;23.792;2023-08-07T20:36:14;4.72;;;2.97;;
57085;SDS011;42964;42.910;23.792;2023-08-07T20:41:14;9.63;;;3.75;;
57085;SDS011;42964;42.910;23.792;2023-08-07T20:46:13;10.32;;;5.18;;
57085;SDS011;42964;42.910;23.792;2023-08-07T20:51:13;6.97;;;4.63;;
57085;SDS011;42964;42.910;23.792;2023-08-07T20:56:12;8.52;;;5.30;;
57085;SDS011;42964;42.910;23.792;2023-08-07T21:01:11;12.55;;;5.57;;
57085;SDS011;42964;42.910;23.792;2023-08-07T21:06:10;8.40;;;5.13;;
57085;SDS011;42964;42.910;23.792;2023-08-07T21:16:07;7.67;;;4.60;;
57085;SDS011;42964;42.910;23.792;2023-08-07T21:26:05;5.80;;;4.37;;
57085;SDS011;42964;42.910;23.792;2023-08-07T21:36:04;4.25;;;3.50;;
57085;SDS011;42964;42.910;23.792;2023-08-07T21:41:04;4.95;;;3.50;;
57085;SDS011;42964;42.910;23.792;2023-08-07T21:51:02;4.40;;;3.42;;
57085;SDS011;42964;42.910;23.792;2023-08-07T22:00:59;3.08;;;2.78;;
57085;SDS011;42964;42.910;23.792;2023-08-07T22:05:59;2.80;;;2.50;;
57085;SDS011;42964;42.910;23.792;2023-08-07T22:15:57;4.10;;;3.17;;
57085;SDS011;42964;42.910;23.792;2023-08-07T22:20:57;2.80;;;2.40;;
57085;SDS011;42964;42.910;23.792;2023-08-07T22:30:55;5.03;;;3.13;;
57085;SDS011;42964;42.910;23.792;2023-08-07T22:40:54;5.20;;;3.58;;
57085;SDS011;42964;42.910;23.792;2023-08-07T22:45:53;5.78;;;3.20;;
57085;SDS011;42964;42.910;23.792;2023-08-07T22:55:51;5.28;;;3.30;;
57085;SDS011;42964;42.910;23.792;2023-08-07T23:00:51;5.78;;;4.03;;
57085;SDS011;42964;42.910;23.792;2023-08-07T23:10:49;6.33;;;3.63;;
57085;SDS011;42964;42.910;23.792;2023-08-07T23:15:48;4.13;;;3.20;;
57085;SDS011;42964;42.910;23.792;2023-08-07T23:25:45;4.97;;;3.17;;
57085;SDS011;42964;42.910;23.792;2023-08-07T23:35:43;3.60;;;3.05;;
57085;SDS011;42964;42.910;23.792;2023-08-07T23:40:42;5.78;;;3.60;;
57085;SDS011;42964;42.910;23.792;2023-08-07T23:45:41;5.32;;;4.00;;
57085;SDS011;42964;42.910;23.792;2023-08-07T23:55:39;7.05;;;4.55;;
